Metar z połowy godziny Komunikat METAR ze strony awiacja.imgw.pl Metar G00 EPRA METAR EPRA 230830Z 28010KT 9999 SCT035 08/M01 Q1020=